sensor_id;sensor_type;location;lat;lon;timestamp;P1;durP1;ratioP1;P2;durP2;ratioP2
46377;SDS011;32083;47.360;9.650;2022-07-26T00:59:16;11.02;;;7.03;;
46377;SDS011;32083;47.360;9.650;2022-07-26T04:03:50;7.95;;;5.93;;
46377;SDS011;32083;47.360;9.650;2022-07-26T04:06:16;6.32;;;5.57;;
46377;SDS011;32083;47.360;9.650;2022-07-26T04:08:42;9.80;;;6.95;;
46377;SDS011;32083;47.360;9.650;2022-07-26T04:11:08;6.50;;;5.90;;
46377;SDS011;32083;47.360;9.650;2022-07-26T04:13:34;7.32;;;6.38;;
46377;SDS011;32083;47.360;9.650;2022-07-26T04:16:01;10.27;;;6.35;;
46377;SDS011;32083;47.360;9.650;2022-07-26T04:18:28;8.85;;;6.35;;
46377;SDS011;32083;47.360;9.650;2022-07-26T04:20:54;6.28;;;5.68;;
46377;SDS011;32083;47.360;9.650;2022-07-26T04:23:21;9.32;;;6.00;;
46377;SDS011;32083;47.360;9.650;2022-07-26T04:25:47;8.07;;;7.25;;
46377;SDS011;32083;47.360;9.650;2022-07-26T04:28:13;7.25;;;6.53;;
46377;SDS011;32083;47.360;9.650;2022-07-26T04:30:39;8.65;;;6.80;;
46377;SDS011;32083;47.360;9.650;2022-07-26T04:33:05;7.07;;;6.00;;
46377;SDS011;32083;47.360;9.650;2022-07-26T04:35:32;7.00;;;6.30;;
46377;SDS011;32083;47.360;9.650;2022-07-26T04:37:58;8.80;;;5.25;;
46377;SDS011;32083;47.360;9.650;2022-07-26T04:40:26;9.40;;;5.63;;
46377;SDS011;32083;47.360;9.650;2022-07-26T04:42:57;8.77;;;6.22;;
46377;SDS011;32083;47.360;9.650;2022-07-26T04:45:23;7.88;;;6.00;;
46377;SDS011;32083;47.360;9.650;2022-07-26T04:47:49;7.50;;;6.00;;
46377;SDS011;32083;47.360;9.650;2022-07-26T04:50:16;6.90;;;6.07;;
46377;SDS011;32083;47.360;9.650;2022-07-26T04:52:43;6.32;;;5.22;;
46377;SDS011;32083;47.360;9.650;2022-07-26T04:55:09;6.28;;;4.95;;
46377;SDS011;32083;47.360;9.650;2022-07-26T04:57:35;5.82;;;4.78;;
46377;SDS011;32083;47.360;9.650;2022-07-26T05:00:02;5.47;;;4.80;;
46377;SDS011;32083;47.360;9.650;2022-07-26T05:02:30;5.72;;;5.07;;
46377;SDS011;32083;47.360;9.650;2022-07-26T05:04:56;6.80;;;5.05;;
46377;SDS011;32083;47.360;9.650;2022-07-26T05:07:22;6.25;;;4.82;;
46377;SDS011;32083;47.360;9.650;2022-07-26T05:09:47;7.22;;;5.15;;
46377;SDS011;32083;47.360;9.650;2022-07-26T05:12:13;5.90;;;4.57;;
46377;SDS011;32083;47.360;9.650;2022-07-26T05:14:39;7.75;;;6.85;;
46377;SDS011;32083;47.360;9.650;2022-07-26T05:17:05;5.30;;;4.60;;
46377;SDS011;32083;47.360;9.650;2022-07-26T05:19:31;5.18;;;4.53;;
46377;SDS011;32083;47.360;9.650;2022-07-26T05:21:57;9.55;;;5.32;;
46377;SDS011;32083;47.360;9.650;2022-07-26T05:24:23;7.68;;;4.68;;
46377;SDS011;32083;47.360;9.650;2022-07-26T05:26:49;6.72;;;4.90;;
46377;SDS011;32083;47.360;9.650;2022-07-26T05:29:15;6.35;;;5.38;;
46377;SDS011;32083;47.360;9.650;2022-07-26T05:31:41;7.05;;;5.25;;
46377;SDS011;32083;47.360;9.650;2022-07-26T05:34:07;9.88;;;8.88;;
46377;SDS011;32083;47.360;9.650;2022-07-26T05:36:33;9.88;;;8.00;;
46377;SDS011;32083;47.360;9.650;2022-07-26T05:38:59;7.20;;;4.75;;
46377;SDS011;32083;47.360;9.650;2022-07-26T05:41:25;6.95;;;5.05;;
46377;SDS011;32083;47.360;9.650;2022-07-26T05:43:51;6.05;;;5.45;;
46377;SDS011;32083;47.360;9.650;2022-07-26T05:46:17;5.95;;;5.07;;
46377;SDS011;32083;47.360;9.650;2022-07-26T05:48:43;7.15;;;5.68;;
46377;SDS011;32083;47.360;9.650;2022-07-26T05:51:09;7.18;;;5.22;;
46377;SDS011;32083;47.360;9.650;2022-07-26T05:53:36;5.32;;;4.60;;
46377;SDS011;32083;47.360;9.650;2022-07-26T05:56:03;6.55;;;5.60;;
46377;SDS011;32083;47.360;9.650;2022-07-26T05:58:29;9.90;;;5.88;;
46377;SDS011;32083;47.360;9.650;2022-07-26T06:00:55;7.00;;;5.50;;
46377;SDS011;32083;47.360;9.650;2022-07-26T06:03:21;7.20;;;6.25;;
46377;SDS011;32083;47.360;9.650;2022-07-26T06:05:48;5.65;;;4.70;;
46377;SDS011;32083;47.360;9.650;2022-07-26T06:08:15;8.73;;;5.30;;
46377;SDS011;32083;47.360;9.650;2022-07-26T06:10:42;6.20;;;5.15;;
46377;SDS011;32083;47.360;9.650;2022-07-26T06:13:08;7.18;;;5.63;;
46377;SDS011;32083;47.360;9.650;2022-07-26T06:15:34;8.73;;;5.88;;
46377;SDS011;32083;47.360;9.650;2022-07-26T06:18:03;8.32;;;5.47;;
46377;SDS011;32083;47.360;9.650;2022-07-26T06:20:30;7.63;;;5.80;;
46377;SDS011;32083;47.360;9.650;2022-07-26T06:22:56;7.68;;;5.25;;
46377;SDS011;32083;47.360;9.650;2022-07-26T06:25:23;6.38;;;5.78;;
46377;SDS011;32083;47.360;9.650;2022-07-26T06:27:50;6.03;;;4.70;;
46377;SDS011;32083;47.360;9.650;2022-07-26T06:30:16;6.65;;;5.78;;
46377;SDS011;32083;47.360;9.650;2022-07-26T06:32:42;5.55;;;4.53;;
46377;SDS011;32083;47.360;9.650;2022-07-26T06:35:09;7.80;;;4.97;;
46377;SDS011;32083;47.360;9.650;2022-07-26T06:37:39;6.32;;;5.20;;
46377;SDS011;32083;47.360;9.650;2022-07-26T06:40:07;7.13;;;5.20;;
46377;SDS011;32083;47.360;9.650;2022-07-26T06:42:34;6.78;;;5.28;;
46377;SDS011;32083;47.360;9.650;2022-07-26T06:45:01;5.18;;;4.68;;
46377;SDS011;32083;47.360;9.650;2022-07-26T06:47:28;4.90;;;4.40;;
46377;SDS011;32083;47.360;9.650;2022-07-26T06:49:54;6.00;;;4.65;;
46377;SDS011;32083;47.360;9.650;2022-07-26T06:52:20;5.50;;;4.60;;
46377;SDS011;32083;47.360;9.650;2022-07-26T06:54:46;7.53;;;4.75;;
46377;SDS011;32083;47.360;9.650;2022-07-26T06:57:12;6.65;;;5.13;;
46377;SDS011;32083;47.360;9.650;2022-07-26T06:59:38;6.47;;;5.38;;
46377;SDS011;32083;47.360;9.650;2022-07-26T07:02:04;6.55;;;4.57;;
46377;SDS011;32083;47.360;9.650;2022-07-26T07:04:30;5.75;;;4.57;;
46377;SDS011;32083;47.360;9.650;2022-07-26T07:06:58;6.13;;;5.00;;
46377;SDS011;32083;47.360;9.650;2022-07-26T07:09:29;6.10;;;5.50;;
46377;SDS011;32083;47.360;9.650;2022-07-26T07:11:56;6.75;;;5.60;;
46377;SDS011;32083;47.360;9.650;2022-07-26T07:14:22;9.25;;;5.30;;
46377;SDS011;32083;47.360;9.650;2022-07-26T07:16:48;6.63;;;5.90;;
46377;SDS011;32083;47.360;9.650;2022-07-26T07:19:14;7.88;;;5.90;;
46377;SDS011;32083;47.360;9.650;2022-07-26T07:21:40;6.90;;;6.20;;
46377;SDS011;32083;47.360;9.650;2022-07-26T07:24:06;8.73;;;6.22;;
46377;SDS011;32083;47.360;9.650;2022-07-26T07:26:33;6.88;;;5.45;;
46377;SDS011;32083;47.360;9.650;2022-07-26T07:28:59;7.07;;;5.07;;
46377;SDS011;32083;47.360;9.650;2022-07-26T07:31:25;7.93;;;5.40;;
46377;SDS011;32083;47.360;9.650;2022-07-26T07:33:51;5.75;;;4.50;;
46377;SDS011;32083;47.360;9.650;2022-07-26T07:36:17;4.20;;;3.80;;
46377;SDS011;32083;47.360;9.650;2022-07-26T07:38:43;5.28;;;4.47;;
46377;SDS011;32083;47.360;9.650;2022-07-26T07:41:10;11.05;;;4.78;;
46377;SDS011;32083;47.360;9.650;2022-07-26T07:43:36;6.55;;;5.43;;
46377;SDS011;32083;47.360;9.650;2022-07-26T07:46:02;6.97;;;4.40;;
46377;SDS011;32083;47.360;9.650;2022-07-26T07:48:28;6.22;;;3.70;;
46377;SDS011;32083;47.360;9.650;2022-07-26T07:50:54;5.40;;;3.90;;
46377;SDS011;32083;47.360;9.650;2022-07-26T07:53:21;5.68;;;3.75;;
46377;SDS011;32083;47.360;9.650;2022-07-26T07:55:49;5.07;;;3.95;;
46377;SDS011;32083;47.360;9.650;2022-07-26T07:58:15;4.60;;;3.75;;
46377;SDS011;32083;47.360;9.650;2022-07-26T08:00:41;8.85;;;4.63;;
46377;SDS011;32083;47.360;9.650;2022-07-26T08:03:07;7.70;;;4.05;;
46377;SDS011;32083;47.360;9.650;2022-07-26T08:05:33;4.40;;;3.95;;
46377;SDS011;32083;47.360;9.650;2022-07-26T08:08:00;6.93;;;4.00;;
46377;SDS011;32083;47.360;9.650;2022-07-26T08:10:29;6.35;;;4.10;;
46377;SDS011;32083;47.360;9.650;2022-07-26T08:12:55;6.85;;;3.97;;
46377;SDS011;32083;47.360;9.650;2022-07-26T08:15:21;5.43;;;4.00;;
46377;SDS011;32083;47.360;9.650;2022-07-26T08:17:48;5.63;;;4.72;;
46377;SDS011;32083;47.360;9.650;2022-07-26T08:20:15;6.03;;;4.63;;
46377;SDS011;32083;47.360;9.650;2022-07-26T08:22:41;4.85;;;4.20;;
46377;SDS011;32083;47.360;9.650;2022-07-26T08:25:07;5.70;;;4.55;;
46377;SDS011;32083;47.360;9.650;2022-07-26T08:27:33;7.15;;;4.47;;
46377;SDS011;32083;47.360;9.650;2022-07-26T08:30:01;8.35;;;4.60;;
46377;SDS011;32083;47.360;9.650;2022-07-26T08:32:28;5.97;;;4.57;;
46377;SDS011;32083;47.360;9.650;2022-07-26T08:34:54;6.55;;;4.82;;
46377;SDS011;32083;47.360;9.650;2022-07-26T08:37:20;7.85;;;4.57;;
46377;SDS011;32083;47.360;9.650;2022-07-26T08:39:46;9.50;;;5.75;;
46377;SDS011;32083;47.360;9.650;2022-07-26T08:42:16;9.20;;;5.70;;
46377;SDS011;32083;47.360;9.650;2022-07-26T08:44:43;6.32;;;4.75;;
46377;SDS011;32083;47.360;9.650;2022-07-26T08:47:15;7.40;;;4.97;;
46377;SDS011;32083;47.360;9.650;2022-07-26T08:49:42;8.15;;;6.18;;
46377;SDS011;32083;47.360;9.650;2022-07-26T08:52:14;5.88;;;5.38;;
46377;SDS011;32083;47.360;9.650;2022-07-26T08:54:45;5.88;;;5.28;;
46377;SDS011;32083;47.360;9.650;2022-07-26T08:57:14;6.10;;;5.50;;
46377;SDS011;32083;47.360;9.650;2022-07-26T08:59:40;7.53;;;5.05;;
46377;SDS011;32083;47.360;9.650;2022-07-26T09:02:08;7.72;;;5.50;;
46377;SDS011;32083;47.360;9.650;2022-07-26T09:04:42;5.60;;;4.55;;
46377;SDS011;32083;47.360;9.650;2022-07-26T09:07:14;5.13;;;4.63;;
46377;SDS011;32083;47.360;9.650;2022-07-26T09:12:34;5.57;;;4.07;;
46377;SDS011;32083;47.360;9.650;2022-07-26T09:15:02;6.18;;;5.38;;
46377;SDS011;32083;47.360;9.650;2022-07-26T09:17:41;6.57;;;5.45;;
46377;SDS011;32083;47.360;9.650;2022-07-26T09:20:17;7.05;;;3.88;;
46377;SDS011;32083;47.360;9.650;2022-07-26T09:25:36;6.53;;;4.05;;
46377;SDS011;32083;47.360;9.650;2022-07-26T09:28:27;2.70;;;2.50;;
46377;SDS011;32083;47.360;9.650;2022-07-26T09:30:56;5.18;;;3.35;;
46377;SDS011;32083;47.360;9.650;2022-07-26T09:33:48;3.13;;;2.60;;
46377;SDS011;32083;47.360;9.650;2022-07-26T09:36:15;4.50;;;3.60;;
46377;SDS011;32083;47.360;9.650;2022-07-26T09:38:49;4.13;;;2.70;;
46377;SDS011;32083;47.360;9.650;2022-07-26T09:41:20;2.60;;;2.30;;
46377;SDS011;32083;47.360;9.650;2022-07-26T09:43:51;3.30;;;2.45;;
46377;SDS011;32083;47.360;9.650;2022-07-26T09:46:18;3.67;;;2.13;;
46377;SDS011;32083;47.360;9.650;2022-07-26T09:48:45;4.57;;;2.25;;
46377;SDS011;32083;47.360;9.650;2022-07-26T09:51:11;2.17;;;1.83;;
46377;SDS011;32083;47.360;9.650;2022-07-26T09:53:44;4.38;;;2.30;;
46377;SDS011;32083;47.360;9.650;2022-07-26T09:56:11;2.75;;;2.10;;
46377;SDS011;32083;47.360;9.650;2022-07-26T09:58:37;3.15;;;2.28;;
46377;SDS011;32083;47.360;9.650;2022-07-26T10:01:05;2.72;;;2.00;;
46377;SDS011;32083;47.360;9.650;2022-07-26T10:03:32;2.35;;;1.70;;
46377;SDS011;32083;47.360;9.650;2022-07-26T10:06:02;2.83;;;1.88;;
46377;SDS011;32083;47.360;9.650;2022-07-26T10:08:31;2.38;;;1.70;;
46377;SDS011;32083;47.360;9.650;2022-07-26T10:11:02;1.77;;;1.55;;
46377;SDS011;32083;47.360;9.650;2022-07-26T10:15:58;2.20;;;1.20;;
46377;SDS011;32083;47.360;9.650;2022-07-26T10:23:41;2.08;;;1.50;;
46377;SDS011;32083;47.360;9.650;2022-07-26T10:26:10;1.95;;;1.73;;
46377;SDS011;32083;47.360;9.650;2022-07-26T10:29:17;1.50;;;1.30;;
46377;SDS011;32083;47.360;9.650;2022-07-26T10:31:41;1.90;;;1.35;;
46377;SDS011;32083;47.360;9.650;2022-07-26T10:34:29;2.08;;;1.60;;
46377;SDS011;32083;47.360;9.650;2022-07-26T10:36:58;2.35;;;1.50;;
46377;SDS011;32083;47.360;9.650;2022-07-26T10:39:26;1.35;;;1.17;;
46377;SDS011;32083;47.360;9.650;2022-07-26T10:42:03;1.73;;;1.60;;
46377;SDS011;32083;47.360;9.650;2022-07-26T10:44:30;3.60;;;2.47;;
46377;SDS011;32083;47.360;9.650;2022-07-26T10:47:02;2.50;;;1.73;;
46377;SDS011;32083;47.360;9.650;2022-07-26T10:52:13;4.32;;;2.33;;
46377;SDS011;32083;47.360;9.650;2022-07-26T10:57:24;2.20;;;1.88;;
46377;SDS011;32083;47.360;9.650;2022-07-26T10:59:51;2.95;;;2.65;;
46377;SDS011;32083;47.360;9.650;2022-07-26T11:02:21;4.20;;;1.75;;
46377;SDS011;32083;47.360;9.650;2022-07-26T11:05:27;3.85;;;1.90;;
46377;SDS011;32083;47.360;9.650;2022-07-26T11:07:46;3.58;;;2.22;;
46377;SDS011;32083;47.360;9.650;2022-07-26T11:10:15;1.90;;;1.50;;
46377;SDS011;32083;47.360;9.650;2022-07-26T11:12:44;1.92;;;1.73;;
46377;SDS011;32083;47.360;9.650;2022-07-26T11:15:16;2.50;;;1.38;;
46377;SDS011;32083;47.360;9.650;2022-07-26T11:17:43;2.30;;;1.95;;
46377;SDS011;32083;47.360;9.650;2022-07-26T11:20:09;2.15;;;1.60;;
46377;SDS011;32083;47.360;9.650;2022-07-26T11:22:35;2.47;;;1.67;;
46377;SDS011;32083;47.360;9.650;2022-07-26T11:25:02;1.88;;;1.60;;
46377;SDS011;32083;47.360;9.650;2022-07-26T11:27:29;3.03;;;1.70;;
46377;SDS011;32083;47.360;9.650;2022-07-26T11:29:56;3.45;;;1.95;;
46377;SDS011;32083;47.360;9.650;2022-07-26T11:32:29;2.70;;;1.83;;
46377;SDS011;32083;47.360;9.650;2022-07-26T11:34:57;2.58;;;1.70;;
46377;SDS011;32083;47.360;9.650;2022-07-26T11:37:24;3.30;;;1.90;;
46377;SDS011;32083;47.360;9.650;2022-07-26T11:39:50;2.50;;;1.70;;
46377;SDS011;32083;47.360;9.650;2022-07-26T11:42:17;4.03;;;1.63;;
46377;SDS011;32083;47.360;9.650;2022-07-26T11:44:46;2.35;;;1.52;;
46377;SDS011;32083;47.360;9.650;2022-07-26T11:47:14;2.45;;;1.95;;
46377;SDS011;32083;47.360;9.650;2022-07-26T11:49:44;3.30;;;1.85;;
46377;SDS011;32083;47.360;9.650;2022-07-26T11:52:12;3.50;;;1.50;;
46377;SDS011;32083;47.360;9.650;2022-07-26T11:54:43;3.88;;;1.85;;
46377;SDS011;32083;47.360;9.650;2022-07-26T11:57:10;9.05;;;2.25;;
46377;SDS011;32083;47.360;9.650;2022-07-26T11:59:40;2.92;;;1.90;;
46377;SDS011;32083;47.360;9.650;2022-07-26T12:02:12;3.58;;;2.88;;
46377;SDS011;32083;47.360;9.650;2022-07-26T12:04:40;2.83;;;2.10;;
46377;SDS011;32083;47.360;9.650;2022-07-26T12:07:16;2.45;;;2.25;;
46377;SDS011;32083;47.360;9.650;2022-07-26T12:12:19;4.53;;;2.00;;
46377;SDS011;32083;47.360;9.650;2022-07-26T12:14:58;2.50;;;1.92;;
46377;SDS011;32083;47.360;9.650;2022-07-26T12:17:33;3.40;;;2.40;;
46377;SDS011;32083;47.360;9.650;2022-07-26T12:20:12;3.65;;;1.80;;
46377;SDS011;32083;47.360;9.650;2022-07-26T12:22:40;4.80;;;2.33;;
46377;SDS011;32083;47.360;9.650;2022-07-26T12:25:27;4.72;;;2.60;;
46377;SDS011;32083;47.360;9.650;2022-07-26T12:27:54;3.03;;;2.72;;
46377;SDS011;32083;47.360;9.650;2022-07-26T12:30:20;2.70;;;1.77;;
46377;SDS011;32083;47.360;9.650;2022-07-26T12:32:47;6.88;;;2.13;;
46377;SDS011;32083;47.360;9.650;2022-07-26T12:35:16;4.47;;;1.60;;
46377;SDS011;32083;47.360;9.650;2022-07-26T12:37:53;3.90;;;2.38;;
46377;SDS011;32083;47.360;9.650;2022-07-26T12:40:20;3.47;;;2.50;;
46377;SDS011;32083;47.360;9.650;2022-07-26T12:45:13;4.45;;;2.00;;
46377;SDS011;32083;47.360;9.650;2022-07-26T12:47:41;19.25;;;4.25;;
46377;SDS011;32083;47.360;9.650;2022-07-26T12:50:09;3.40;;;2.78;;
46377;SDS011;32083;47.360;9.650;2022-07-26T12:52:36;6.20;;;3.08;;
46377;SDS011;32083;47.360;9.650;2022-07-26T12:55:04;3.83;;;2.30;;
46377;SDS011;32083;47.360;9.650;2022-07-26T12:57:33;5.72;;;2.17;;
46377;SDS011;32083;47.360;9.650;2022-07-26T12:59:59;5.32;;;2.28;;
46377;SDS011;32083;47.360;9.650;2022-07-26T13:02:26;3.65;;;2.50;;
46377;SDS011;32083;47.360;9.650;2022-07-26T13:04:52;4.20;;;2.40;;
46377;SDS011;32083;47.360;9.650;2022-07-26T13:07:18;5.55;;;1.90;;
46377;SDS011;32083;47.360;9.650;2022-07-26T13:09:45;3.72;;;2.08;;
46377;SDS011;32083;47.360;9.650;2022-07-26T13:12:12;5.60;;;2.33;;
46377;SDS011;32083;47.360;9.650;2022-07-26T13:14:39;2.70;;;1.77;;
46377;SDS011;32083;47.360;9.650;2022-07-26T13:17:06;2.92;;;1.70;;
46377;SDS011;32083;47.360;9.650;2022-07-26T13:19:33;4.20;;;2.10;;
46377;SDS011;32083;47.360;9.650;2022-07-26T13:22:01;2.50;;;1.98;;
46377;SDS011;32083;47.360;9.650;2022-07-26T13:24:28;3.30;;;1.63;;
46377;SDS011;32083;47.360;9.650;2022-07-26T13:26:55;4.78;;;2.40;;
46377;SDS011;32083;47.360;9.650;2022-07-26T13:29:22;2.83;;;2.10;;
46377;SDS011;32083;47.360;9.650;2022-07-26T13:31:48;3.53;;;2.00;;
46377;SDS011;32083;47.360;9.650;2022-07-26T13:34:16;3.88;;;1.90;;
46377;SDS011;32083;47.360;9.650;2022-07-26T13:36:42;2.72;;;1.92;;
46377;SDS011;32083;47.360;9.650;2022-07-26T13:39:08;5.13;;;2.00;;
46377;SDS011;32083;47.360;9.650;2022-07-26T13:41:35;2.30;;;1.80;;
46377;SDS011;32083;47.360;9.650;2022-07-26T13:44:02;3.03;;;1.83;;
46377;SDS011;32083;47.360;9.650;2022-07-26T13:46:28;4.18;;;1.80;;
46377;SDS011;32083;47.360;9.650;2022-07-26T13:48:58;4.22;;;1.60;;
46377;SDS011;32083;47.360;9.650;2022-07-26T13:51:25;2.75;;;1.83;;
46377;SDS011;32083;47.360;9.650;2022-07-26T13:54:12;2.60;;;1.60;;
46377;SDS011;32083;47.360;9.650;2022-07-26T13:56:39;2.72;;;1.80;;
46377;SDS011;32083;47.360;9.650;2022-07-26T13:59:05;2.55;;;2.05;;
46377;SDS011;32083;47.360;9.650;2022-07-26T14:01:31;2.30;;;2.00;;
46377;SDS011;32083;47.360;9.650;2022-07-26T14:03:57;2.83;;;1.83;;
46377;SDS011;32083;47.360;9.650;2022-07-26T14:06:24;3.03;;;2.05;;
46377;SDS011;32083;47.360;9.650;2022-07-26T14:08:50;2.60;;;1.80;;
46377;SDS011;32083;47.360;9.650;2022-07-26T14:11:16;1.95;;;1.80;;
46377;SDS011;32083;47.360;9.650;2022-07-26T14:13:43;1.75;;;1.60;;
46377;SDS011;32083;47.360;9.650;2022-07-26T14:16:08;3.58;;;1.40;;
46377;SDS011;32083;47.360;9.650;2022-07-26T14:18:34;1.80;;;1.70;;
46377;SDS011;32083;47.360;9.650;2022-07-26T14:21:01;2.47;;;1.60;;
46377;SDS011;32083;47.360;9.650;2022-07-26T14:23:28;2.10;;;1.83;;
46377;SDS011;32083;47.360;9.650;2022-07-26T14:25:54;4.63;;;1.88;;
46377;SDS011;32083;47.360;9.650;2022-07-26T14:28:20;2.65;;;1.90;;
46377;SDS011;32083;47.360;9.650;2022-07-26T14:30:46;4.55;;;2.00;;
46377;SDS011;32083;47.360;9.650;2022-07-26T14:33:13;4.63;;;2.38;;
46377;SDS011;32083;47.360;9.650;2022-07-26T14:35:39;2.53;;;1.90;;
46377;SDS011;32083;47.360;9.650;2022-07-26T14:38:08;3.63;;;1.90;;
46377;SDS011;32083;47.360;9.650;2022-07-26T14:40:35;2.58;;;2.00;;
46377;SDS011;32083;47.360;9.650;2022-07-26T14:43:01;5.70;;;2.63;;
46377;SDS011;32083;47.360;9.650;2022-07-26T14:45:27;2.78;;;2.00;;
46377;SDS011;32083;47.360;9.650;2022-07-26T14:47:53;2.33;;;1.80;;
46377;SDS011;32083;47.360;9.650;2022-07-26T14:50:21;2.60;;;1.90;;
46377;SDS011;32083;47.360;9.650;2022-07-26T14:52:49;3.65;;;2.33;;
46377;SDS011;32083;47.360;9.650;2022-07-26T14:55:16;3.50;;;1.90;;
46377;SDS011;32083;47.360;9.650;2022-07-26T14:57:43;2.72;;;2.00;;
46377;SDS011;32083;47.360;9.650;2022-07-26T15:00:11;2.03;;;1.83;;
46377;SDS011;32083;47.360;9.650;2022-07-26T15:02:39;3.45;;;2.00;;
46377;SDS011;32083;47.360;9.650;2022-07-26T15:05:08;2.85;;;2.10;;
46377;SDS011;32083;47.360;9.650;2022-07-26T15:07:35;2.42;;;2.00;;
46377;SDS011;32083;47.360;9.650;2022-07-26T15:10:01;3.17;;;2.40;;
46377;SDS011;32083;47.360;9.650;2022-07-26T15:12:29;2.10;;;1.75;;
46377;SDS011;32083;47.360;9.650;2022-07-26T15:14:55;3.30;;;2.05;;
46377;SDS011;32083;47.360;9.650;2022-07-26T15:17:21;2.65;;;2.00;;
46377;SDS011;32083;47.360;9.650;2022-07-26T15:19:47;2.45;;;2.22;;
46377;SDS011;32083;47.360;9.650;2022-07-26T15:22:13;2.72;;;1.92;;
46377;SDS011;32083;47.360;9.650;2022-07-26T15:24:39;2.28;;;1.92;;
46377;SDS011;32083;47.360;9.650;2022-07-26T15:27:05;2.05;;;1.67;;
46377;SDS011;32083;47.360;9.650;2022-07-26T15:29:31;3.08;;;2.03;;
46377;SDS011;32083;47.360;9.650;2022-07-26T15:31:57;2.30;;;1.80;;
46377;SDS011;32083;47.360;9.650;2022-07-26T15:34:23;4.15;;;2.45;;
46377;SDS011;32083;47.360;9.650;2022-07-26T15:36:49;3.00;;;1.92;;
46377;SDS011;32083;47.360;9.650;2022-07-26T15:39:15;2.15;;;1.88;;
46377;SDS011;32083;47.360;9.650;2022-07-26T15:41:41;3.00;;;1.70;;
46377;SDS011;32083;47.360;9.650;2022-07-26T15:44:08;2.70;;;2.33;;
46377;SDS011;32083;47.360;9.650;2022-07-26T15:46:34;3.00;;;2.00;;
46377;SDS011;32083;47.360;9.650;2022-07-26T15:49:00;2.92;;;2.15;;
46377;SDS011;32083;47.360;9.650;2022-07-26T15:51:25;3.17;;;2.22;;
46377;SDS011;32083;47.360;9.650;2022-07-26T15:53:52;3.17;;;2.08;;
46377;SDS011;32083;47.360;9.650;2022-07-26T15:56:18;3.85;;;1.90;;
46377;SDS011;32083;47.360;9.650;2022-07-26T15:58:44;4.82;;;1.98;;
46377;SDS011;32083;47.360;9.650;2022-07-26T16:01:09;3.22;;;2.00;;
46377;SDS011;32083;47.360;9.650;2022-07-26T16:03:36;2.10;;;1.90;;
46377;SDS011;32083;47.360;9.650;2022-07-26T16:06:03;7.07;;;1.83;;
46377;SDS011;32083;47.360;9.650;2022-07-26T16:08:29;3.25;;;2.25;;
46377;SDS011;32083;47.360;9.650;2022-07-26T16:10:55;4.68;;;2.10;;
46377;SDS011;32083;47.360;9.650;2022-07-26T16:13:21;2.75;;;1.80;;
46377;SDS011;32083;47.360;9.650;2022-07-26T16:15:47;2.47;;;2.08;;
46377;SDS011;32083;47.360;9.650;2022-07-26T16:18:13;3.00;;;1.92;;
46377;SDS011;32083;47.360;9.650;2022-07-26T16:20:39;4.43;;;2.10;;
46377;SDS011;32083;47.360;9.650;2022-07-26T16:23:06;3.78;;;2.08;;
46377;SDS011;32083;47.360;9.650;2022-07-26T16:25:33;2.97;;;1.95;;
46377;SDS011;32083;47.360;9.650;2022-07-26T16:27:58;1.75;;;1.60;;
46377;SDS011;32083;47.360;9.650;2022-07-26T16:30:24;3.42;;;1.80;;
46377;SDS011;32083;47.360;9.650;2022-07-26T16:32:50;2.83;;;1.88;;
46377;SDS011;32083;47.360;9.650;2022-07-26T16:35:16;5.68;;;1.75;;
46377;SDS011;32083;47.360;9.650;2022-07-26T16:37:42;2.05;;;1.85;;
46377;SDS011;32083;47.360;9.650;2022-07-26T16:40:08;2.85;;;2.30;;
46377;SDS011;32083;47.360;9.650;2022-07-26T16:42:35;2.55;;;1.75;;
46377;SDS011;32083;47.360;9.650;2022-07-26T16:45:01;3.10;;;2.05;;
46377;SDS011;32083;47.360;9.650;2022-07-26T16:47:27;2.13;;;1.83;;
46377;SDS011;32083;47.360;9.650;2022-07-26T16:49:53;2.00;;;1.70;;
46377;SDS011;32083;47.360;9.650;2022-07-26T16:52:19;3.00;;;1.52;;
46377;SDS011;32083;47.360;9.650;2022-07-26T16:54:46;5.22;;;1.98;;
46377;SDS011;32083;47.360;9.650;2022-07-26T16:57:12;5.28;;;2.63;;
46377;SDS011;32083;47.360;9.650;2022-07-26T16:59:38;2.78;;;2.35;;
46377;SDS011;32083;47.360;9.650;2022-07-26T17:02:04;3.38;;;2.38;;
46377;SDS011;32083;47.360;9.650;2022-07-26T17:04:30;3.00;;;1.90;;
46377;SDS011;32083;47.360;9.650;2022-07-26T17:06:56;2.42;;;2.00;;
46377;SDS011;32083;47.360;9.650;2022-07-26T17:09:22;2.10;;;1.90;;
46377;SDS011;32083;47.360;9.650;2022-07-26T17:11:48;2.33;;;1.83;;
46377;SDS011;32083;47.360;9.650;2022-07-26T17:14:14;2.30;;;2.10;;
46377;SDS011;32083;47.360;9.650;2022-07-26T17:16:42;3.78;;;2.00;;
46377;SDS011;32083;47.360;9.650;2022-07-26T17:19:08;2.60;;;2.40;;
46377;SDS011;32083;47.360;9.650;2022-07-26T17:21:34;2.63;;;2.42;;
46377;SDS011;32083;47.360;9.650;2022-07-26T17:24:00;3.33;;;2.15;;
46377;SDS011;32083;47.360;9.650;2022-07-26T17:26:26;2.53;;;2.25;;
46377;SDS011;32083;47.360;9.650;2022-07-26T17:28:54;2.88;;;2.25;;
46377;SDS011;32083;47.360;9.650;2022-07-26T17:31:21;3.30;;;2.30;;
46377;SDS011;32083;47.360;9.650;2022-07-26T17:33:47;3.88;;;3.17;;
46377;SDS011;32083;47.360;9.650;2022-07-26T17:36:26;6.13;;;4.20;;
46377;SDS011;32083;47.360;9.650;2022-07-26T17:38:55;4.03;;;3.15;;
46377;SDS011;32083;47.360;9.650;2022-07-26T17:41:22;2.50;;;2.30;;
46377;SDS011;32083;47.360;9.650;2022-07-26T17:43:49;5.20;;;3.03;;
46377;SDS011;32083;47.360;9.650;2022-07-26T17:46:17;3.00;;;2.70;;
46377;SDS011;32083;47.360;9.650;2022-07-26T17:48:43;4.03;;;3.00;;
46377;SDS011;32083;47.360;9.650;2022-07-26T17:51:11;7.40;;;4.60;;
46377;SDS011;32083;47.360;9.650;2022-07-26T17:53:38;7.25;;;6.00;;
46377;SDS011;32083;47.360;9.650;2022-07-26T17:56:06;5.63;;;4.95;;
46377;SDS011;32083;47.360;9.650;2022-07-26T17:58:32;5.85;;;3.90;;
46377;SDS011;32083;47.360;9.650;2022-07-26T18:00:59;5.03;;;3.95;;
46377;SDS011;32083;47.360;9.650;2022-07-26T18:03:24;6.43;;;3.22;;
46377;SDS011;32083;47.360;9.650;2022-07-26T18:05:50;4.45;;;2.83;;
46377;SDS011;32083;47.360;9.650;2022-07-26T18:08:16;3.42;;;3.13;;
46377;SDS011;32083;47.360;9.650;2022-07-26T18:10:42;2.53;;;2.33;;
46377;SDS011;32083;47.360;9.650;2022-07-26T18:13:08;3.78;;;2.80;;
46377;SDS011;32083;47.360;9.650;2022-07-26T18:15:34;2.95;;;2.60;;
46377;SDS011;32083;47.360;9.650;2022-07-26T18:18:00;3.22;;;2.40;;
46377;SDS011;32083;47.360;9.650;2022-07-26T18:20:26;4.30;;;2.75;;
46377;SDS011;32083;47.360;9.650;2022-07-26T18:22:52;3.08;;;2.50;;
46377;SDS011;32083;47.360;9.650;2022-07-26T18:25:19;2.85;;;2.53;;
46377;SDS011;32083;47.360;9.650;2022-07-26T18:27:45;5.45;;;3.15;;
46377;SDS011;32083;47.360;9.650;2022-07-26T18:30:11;4.78;;;2.80;;
46377;SDS011;32083;47.360;9.650;2022-07-26T18:32:37;4.82;;;2.70;;
46377;SDS011;32083;47.360;9.650;2022-07-26T18:35:03;8.70;;;3.38;;
46377;SDS011;32083;47.360;9.650;2022-07-26T18:37:30;4.18;;;2.90;;
46377;SDS011;32083;47.360;9.650;2022-07-26T18:39:56;5.60;;;3.20;;
46377;SDS011;32083;47.360;9.650;2022-07-26T18:42:23;2.70;;;2.50;;
46377;SDS011;32083;47.360;9.650;2022-07-26T18:44:50;4.88;;;3.45;;
46377;SDS011;32083;47.360;9.650;2022-07-26T18:47:16;3.70;;;2.90;;
46377;SDS011;32083;47.360;9.650;2022-07-26T18:49:41;3.92;;;3.33;;
46377;SDS011;32083;47.360;9.650;2022-07-26T18:52:07;3.47;;;2.88;;
46377;SDS011;32083;47.360;9.650;2022-07-26T18:54:33;5.57;;;3.67;;
46377;SDS011;32083;47.360;9.650;2022-07-26T18:57:00;2.67;;;2.40;;
46377;SDS011;32083;47.360;9.650;2022-07-26T18:59:26;2.20;;;2.00;;
46377;SDS011;32083;47.360;9.650;2022-07-26T19:01:53;2.92;;;2.05;;
46377;SDS011;32083;47.360;9.650;2022-07-26T19:04:18;6.40;;;2.35;;
46377;SDS011;32083;47.360;9.650;2022-07-26T19:06:44;8.63;;;2.53;;
46377;SDS011;32083;47.360;9.650;2022-07-26T19:09:10;2.85;;;2.15;;
46377;SDS011;32083;47.360;9.650;2022-07-26T19:11:36;3.55;;;2.55;;
46377;SDS011;32083;47.360;9.650;2022-07-26T19:14:02;2.38;;;2.17;;